Time;durP1;ratioP1;P1;durP2;ratioP2;P2;SDS_P1;SDS_P2;PMS_P1;PMS_P2;Temp;Humidity;BMP_temperature;BMP_pressure;BME280_temperature;BME280_humidity;BME280_pressure;Samples;Min_cycle;Max_cycle;Signal;HPM_P1;HPM_P2
2022/10/21 00:00:27;;;;;;;7.07;6.38;;;;;;;14.75;93.14;95556.03;5111457;28;20203;-81
2022/10/21 00:02:54;;;;;;;14.48;7.47;;;;;;;14.68;94.95;95547.47;5111595;28;20230;-80
2022/10/21 00:05:20;;;;;;;9.85;6.57;;;;;;;14.77;93.61;95548.84;5119768;27;20215;-81
2022/10/21 00:07:47;;;;;;;8.18;7.32;;;;;;;14.83;93.18;95542.84;5123931;27;20200;-80
2022/10/21 00:10:13;;;;;;;7.07;6.38;;;;;;;14.84;93.96;95536.66;5111015;28;20200;-81
2022/10/21 00:12:40;;;;;;;12.18;6.93;;;;;;;14.89;93.78;95539.44;5111166;28;20210;-81
2022/10/21 00:15:08;;;;;;;10.18;6.78;;;;;;;14.89;94.36;95539.44;5111092;28;20698;-80
2022/10/21 00:17:38;;;;;;;7.63;6.47;;;;;;;14.94;93.87;95537.03;5111792;28;20210;-81
2022/10/21 00:20:06;;;;;;;8.93;6.60;;;;;;;14.97;94.11;95531.44;5111472;28;20682;-81
2022/10/21 00:22:33;;;;;;;7.55;6.75;;;;;;;15.05;93.59;95535.59;5111719;28;20245;-80
2022/10/21 00:25:00;;;;;;;7.57;6.75;;;;;;;15.08;93.44;95533.38;5111476;28;20215;-81
2022/10/21 00:27:27;;;;;;;7.53;6.75;;;;;;;15.06;94.10;95529.41;5111478;28;20564;-80
2022/10/21 00:29:53;;;;;;;9.02;6.75;;;;;;;15.01;94.51;95530.00;5110222;28;20252;-81
2022/10/21 00:32:19;;;;;;;7.97;6.50;;;;;;;15.02;94.18;95541.19;5111036;28;20195;-80
2022/10/21 00:34:47;;;;;;;7.25;6.47;;;;;;;15.09;93.95;95527.19;5111067;28;20203;-81
2022/10/21 00:37:16;;;;;;;10.55;6.65;;;;;;;15.19;93.15;95530.16;5109648;28;20203;-81
2022/10/21 00:39:42;;;;;;;8.77;6.90;;;;;;;15.19;93.15;95529.38;5090625;28;20200;-80
2022/10/21 00:42:16;;;;;;;8.32;6.72;;;;;;;15.25;93.03;95522.53;5089973;28;20246;-81
2022/10/21 00:44:44;;;;;;;7.70;6.53;;;;;;;15.27;92.71;95521.34;5090619;28;20204;-80
2022/10/21 00:47:15;;;;;;;10.65;6.50;;;;;;;15.32;93.46;95518.91;5090446;28;20564;-80
2022/10/21 00:49:48;;;;;;;8.88;6.65;;;;;;;15.38;92.42;95530.28;5090275;28;20199;-81
2022/10/21 00:52:19;;;;;;;7.70;5.90;;;;;;;15.45;91.90;95528.44;5090196;28;20212;-80
2022/10/21 00:54:48;;;;;;;9.98;6.15;;;;;;;15.51;91.49;95525.00;5095061;28;20192;-80
2022/10/21 00:57:16;;;;;;;7.22;6.10;;;;;;;15.51;91.53;95515.44;5111163;28;20204;-80
2022/10/21 00:59:48;;;;;;;8.25;6.70;;;;;;;15.47;91.56;95516.84;5111066;28;20548;-81
2022/10/21 01:02:15;;;;;;;8.50;6.15;;;;;;;15.52;91.05;95517.03;5118979;28;20242;-80
2022/10/21 01:04:42;;;;;;;11.52;6.60;;;;;;;15.57;90.75;95521.63;5117318;28;20200;-80
2022/10/21 01:07:09;;;;;;;7.55;6.57;;;;;;;15.54;91.49;95516.81;5110637;28;20224;-80
2022/10/21 01:09:36;;;;;;;7.60;6.50;;;;;;;15.54;91.39;95524.59;5111054;28;20210;-81
2022/10/21 01:12:11;;;;;;;7.28;6.13;;;;;;;15.56;91.58;95525.22;5110751;28;20211;-81
2022/10/21 01:14:52;;;;;;;9.57;6.43;;;;;;;15.47;92.46;95518.63;5110910;28;20296;-81
2022/10/21 01:17:32;;;;;;;7.53;6.70;;;;;;;15.45;92.14;95518.84;5111052;28;20207;-80
2022/10/21 01:20:25;;;;;;;6.68;6.07;;;;;;;15.47;92.19;95518.63;5110915;28;20195;-81
2022/10/21 01:23:28;;;;;;;8.25;7.00;;;;;;;15.35;93.17;95517.72;5111395;28;20623;-80
2022/10/21 01:26:14;;;;;;;7.32;6.40;;;;;;;15.31;93.15;95516.53;5110949;28;20214;-81
2022/10/21 01:28:55;;;;;;;8.25;6.63;;;;;;;15.24;93.72;95513.16;5110671;28;20207;-81
2022/10/21 01:31:27;;;;;;;6.90;6.20;;;;;;;15.31;93.04;95512.13;5109469;28;20200;-81
2022/10/21 01:34:02;;;;;;;8.70;6.45;;;;;;;15.31;93.75;95500.97;5110314;28;20211;-80
2022/10/21 01:36:36;;;;;;;9.07;6.93;;;;;;;15.22;94.15;95508.19;5110245;28;20214;-81
2022/10/21 01:39:12;;;;;;;7.70;6.40;;;;;;;15.29;93.13;95511.56;5096772;28;20206;-80
2022/10/21 01:41:44;;;;;;;7.07;5.95;;;;;;;15.27;93.43;95515.34;5093734;28;20199;-82
2022/10/21 01:44:20;;;;;;;10.02;6.97;;;;;;;15.26;93.79;95511.16;5093541;28;20220;-80
2022/10/21 01:46:53;;;;;;;6.75;6.15;;;;;;;15.35;92.71;95497.75;5093710;28;20224;-81
2022/10/21 01:49:27;;;;;;;7.93;6.22;;;;;;;15.36;92.73;95485.59;5093397;28;20207;-80
2022/10/21 01:51:54;;;;;;;7.50;6.80;;;;;;;15.26;93.36;95473.06;5093122;28;20212;-81
2022/10/21 01:54:26;;;;;;;8.27;6.53;;;;;;;15.31;92.95;95478.41;5094674;28;20203;-81
2022/10/21 01:56:53;;;;;;;7.80;6.40;;;;;;;15.33;92.74;95479.00;5116335;27;20226;-81
2022/10/21 01:59:23;;;;;;;7.57;6.70;;;;;;;15.30;93.72;95474.22;5125910;27;20195;-81
2022/10/21 02:01:52;;;;;;;8.07;6.88;;;;;;;15.34;93.49;95462.44;5116294;27;20214;-80
2022/10/21 02:04:19;;;;;;;7.55;6.57;;;;;;;15.25;93.77;95468.88;5113227;28;20225;-81
2022/10/21 02:06:46;;;;;;;7.68;6.65;;;;;;;15.23;93.79;95473.47;5113544;28;20309;-80
2022/10/21 02:09:12;;;;;;;8.90;6.68;;;;;;;15.18;94.31;95471.50;5114145;27;20206;-80
2022/10/21 02:11:42;;;;;;;7.55;6.70;;;;;;;15.10;95.35;95466.56;5113658;28;20200;-81
2022/10/21 02:14:13;;;;;;;7.80;6.50;;;;;;;15.17;94.51;95467.31;5113721;27;20210;-81
2022/10/21 02:16:41;;;;;;;8.05;6.70;;;;;;;15.23;94.55;95470.06;5113403;28;20584;-80
2022/10/21 02:19:14;;;;;;;7.70;6.07;;;;;;;15.19;95.08;95467.13;5113656;27;20199;-80
2022/10/21 02:21:43;;;;;;;7.18;6.47;;;;;;;15.28;nan;95463.25;5113823;28;20195;-82
2022/10/21 02:24:16;;;;;;;9.25;6.10;;;;;;;15.36;93.59;95468.22;5113488;28;20224;-80
2022/10/21 02:26:43;;;;;;;8.52;6.30;;;;;;;15.38;93.49;95468.81;5113548;27;20360;-80
2022/10/21 02:29:11;;;;;;;8.05;6.72;;;;;;;15.40;93.07;95461.59;5113270;27;20206;-80
2022/10/21 02:31:54;;;;;;;8.73;6.70;;;;;;;15.27;94.23;95459.09;5112820;28;20571;-81
2022/10/21 02:34:34;;;;;;;7.93;6.57;;;;;;;15.20;94.61;95453.16;5113914;28;20200;-81
2022/10/21 02:37:08;;;;;;;7.93;6.88;;;;;;;15.05;96.25;95455.19;5113823;28;20215;-80
2022/10/21 02:39:39;;;;;;;7.70;6.18;;;;;;;15.05;96.22;95448.22;5092900;28;20203;-81
2022/10/21 02:42:12;;;;;;;8.13;6.80;;;;;;;15.00;97.07;95442.09;5093006;28;20207;-80
2022/10/21 02:44:38;;;;;;;8.15;7.00;;;;;;;14.93;98.61;95438.72;5092668;28;20599;-81
2022/10/21 02:47:05;;;;;;;9.23;7.03;;;;;;;14.94;98.98;95429.94;5092456;28;20242;-80
2022/10/21 02:49:33;;;;;;;7.18;6.47;;;;;;;15.08;97.12;95432.25;5092000;28;20211;-80
2022/10/21 02:51:59;;;;;;;7.55;6.75;;;;;;;15.21;96.33;95426.19;5091978;28;20203;-81
2022/10/21 02:54:26;;;;;;;11.73;6.13;;;;;;;15.32;95.52;95417.75;5119761;27;20218;-81
2022/10/21 02:56:52;;;;;;;7.43;6.72;;;;;;;15.26;96.03;95412.59;5104983;28;20220;-81
2022/10/21 02:59:18;;;;;;;8.18;6.68;;;;;;;15.32;95.42;95409.97;5092750;28;20204;-81
2022/10/21 03:01:45;;;;;;;9.13;6.53;;;;;;;15.41;94.76;95405.31;5092023;28;20204;-81
2022/10/21 03:04:11;;;;;;;7.25;6.55;;;;;;;15.36;95.29;95400.78;5092187;28;20761;-80
2022/10/21 03:06:39;;;;;;;9.32;6.82;;;;;;;15.29;96.01;95402.59;5091867;28;20592;-81
2022/10/21 03:09:06;;;;;;;7.72;6.85;;;;;;;15.26;96.21;95397.81;5108583;28;20208;-81
2022/10/21 03:11:32;;;;;;;9.35;6.80;;;;;;;15.28;96.46;95402.81;5112347;28;20196;-80
2022/10/21 03:13:59;;;;;;;9.15;6.47;;;;;;;15.30;96.42;95403.41;5112408;28;20221;-81
2022/10/21 03:16:25;;;;;;;11.93;7.25;;;;;;;15.37;95.57;95414.53;5114050;28;20227;-80
2022/10/21 03:18:52;;;;;;;7.85;7.05;;;;;;;15.45;94.92;95416.84;5112281;28;20195;-81
2022/10/21 03:21:18;;;;;;;9.68;6.80;;;;;;;15.50;94.38;95417.81;5111943;28;20203;-81
2022/10/21 03:23:46;;;;;;;8.98;6.60;;;;;;;15.53;94.35;95416.59;5112359;28;20216;-80
2022/10/21 03:26:13;;;;;;;9.02;6.53;;;;;;;15.51;94.83;95422.00;5112156;28;20229;-81
2022/10/21 03:28:39;;;;;;;7.35;6.63;;;;;;;15.51;94.50;95409.03;5112204;28;20206;-81
2022/10/21 03:31:06;;;;;;;8.68;7.00;;;;;;;15.48;94.33;95409.44;5111054;28;20214;-81
2022/10/21 03:33:32;;;;;;;10.13;7.03;;;;;;;15.53;94.48;95408.81;5112205;28;20199;-81
2022/10/21 03:35:59;;;;;;;7.38;6.57;;;;;;;15.42;95.21;95407.69;5111680;28;20234;-81
2022/10/21 03:38:25;;;;;;;7.05;6.35;;;;;;;15.34;95.98;95404.56;5100565;28;20200;-80
2022/10/21 03:40:53;;;;;;;7.63;6.80;;;;;;;15.23;96.83;95402.63;5091611;28;20203;-81
2022/10/21 03:43:19;;;;;;;8.57;6.95;;;;;;;15.14;97.48;95399.50;5092325;28;20722;-80
2022/10/21 03:45:47;;;;;;;7.38;6.63;;;;;;;15.23;97.05;95397.44;5092234;28;20330;-81
2022/10/21 03:48:14;;;;;;;8.65;7.13;;;;;;;15.29;96.27;95400.00;5092300;28;20200;-80
2022/10/21 03:50:40;;;;;;;7.47;6.60;;;;;;;15.33;95.76;95398.59;5119321;27;20203;-80
2022/10/21 03:53:07;;;;;;;7.45;6.57;;;;;;;15.41;94.77;95400.13;5117963;27;20196;-81
2022/10/21 03:55:33;;;;;;;7.50;5.95;;;;;;;15.44;94.66;95394.50;5111978;28;20217;-81
2022/10/21 03:58:01;;;;;;;8.68;6.35;;;;;;;15.39;94.67;95386.59;5112237;28;20207;-80
2022/10/21 04:00:27;;;;;;;9.50;6.50;;;;;;;15.42;94.23;95373.97;5111126;28;20211;-81
2022/10/21 04:02:54;;;;;;;9.32;5.85;;;;;;;15.41;94.04;95356.81;5111524;28;20203;-81
2022/10/21 04:05:20;;;;;;;8.98;7.00;;;;;;;15.46;93.74;95351.00;5110505;28;20219;-81
2022/10/21 04:07:47;;;;;;;8.57;6.72;;;;;;;15.48;93.72;95354.97;5111642;28;20563;-81
2022/10/21 04:10:13;;;;;;;9.02;6.75;;;;;;;15.51;93.74;95353.75;5110871;28;20204;-81
2022/10/21 04:12:40;;;;;;;8.70;6.30;;;;;;;15.59;93.32;95347.53;5111625;28;20219;-81
2022/10/21 04:15:12;;;;;;;9.00;6.22;;;;;;;15.62;92.68;95347.88;5111430;28;20199;-81
2022/10/21 04:17:39;;;;;;;6.78;6.13;;;;;;;15.67;92.37;95352.44;5110858;28;20206;-82
2022/10/21 04:20:06;;;;;;;6.95;6.25;;;;;;;15.66;92.09;95346.44;5111239;28;20210;-80
2022/10/21 04:22:33;;;;;;;9.60;6.28;;;;;;;15.60;92.00;95343.91;5111384;28;20203;-81
2022/10/21 04:24:59;;;;;;;7.60;6.43;;;;;;;15.44;92.38;95332.25;5111256;28;20309;-81
2022/10/21 04:27:26;;;;;;;11.00;6.90;;;;;;;15.33;93.23;95325.97;5110880;28;20207;-81
2022/10/21 04:29:52;;;;;;;8.27;6.80;;;;;;;15.38;93.18;95330.50;5110144;28;20575;-81
2022/10/21 04:32:20;;;;;;;8.35;6.15;;;;;;;15.43;92.86;95338.44;5110068;28;20203;-81
2022/10/21 04:34:47;;;;;;;9.93;6.30;;;;;;;15.46;91.66;95332.81;5104051;28;20196;-81
2022/10/21 04:37:13;;;;;;;6.80;6.10;;;;;;;15.39;90.91;95322.53;5104516;28;20219;-81
2022/10/21 04:39:40;;;;;;;9.05;6.28;;;;;;;15.28;91.37;95319.81;5109742;28;20210;-81
2022/10/21 04:42:06;;;;;;;9.45;6.22;;;;;;;15.28;91.39;95319.81;5107285;28;20206;-81
2022/10/21 04:44:33;;;;;;;7.80;6.22;;;;;;;15.28;91.47;95317.22;5109856;28;20224;-82
2022/10/21 04:46:59;;;;;;;7.15;6.15;;;;;;;15.19;91.46;95304.53;5107069;28;20226;-80
2022/10/21 04:49:27;;;;;;;7.75;6.07;;;;;;;15.18;91.58;95302.94;5108017;28;20203;-81
2022/10/21 04:51:53;;;;;;;8.13;6.28;;;;;;;15.15;91.61;95287.00;5109251;28;20200;-81
2022/10/21 04:54:20;;;;;;;9.60;6.15;;;;;;;15.18;91.90;95284.00;5107219;28;20195;-81
2022/10/21 04:56:47;;;;;;;5.97;5.38;;;;;;;15.11;91.52;95285.81;5111114;28;20302;-82
2022/10/21 04:59:13;;;;;;;6.65;6.05;;;;;;;15.14;91.17;95277.63;5111452;28;20669;-81
2022/10/21 05:01:40;;;;;;;8.85;6.07;;;;;;;15.19;91.12;95283.78;5110899;28;20199;-82
2022/10/21 05:04:07;;;;;;;9.70;5.88;;;;;;;15.28;90.24;95273.91;5109554;28;20226;-83
2022/10/21 05:06:35;;;;;;;14.68;12.57;;;;;;;15.32;90.17;95276.88;5111050;28;20220;-80
2022/10/21 05:09:01;;;;;;;9.82;8.07;;;;;;;15.33;89.75;95281.84;5111731;28;20705;-81
2022/10/21 05:11:29;;;;;;;10.77;6.10;;;;;;;15.39;89.44;95278.41;5108659;28;20203;-82
2022/10/21 05:13:55;;;;;;;6.38;5.60;;;;;;;15.38;89.07;95263.06;5119581;27;20296;-80
2022/10/21 05:16:22;;;;;;;7.20;6.30;;;;;;;15.28;89.51;95254.97;5115449;28;20223;-82
2022/10/21 05:18:49;;;;;;;7.55;5.32;;;;;;;15.23;89.83;95253.00;5115593;28;20200;-81
2022/10/21 05:21:15;;;;;;;6.10;5.60;;;;;;;15.20;90.14;95254.22;5114636;28;20705;-82
2022/10/21 05:23:43;;;;;;;10.88;5.63;;;;;;;15.10;90.96;95243.53;5117940;28;20223;-82
2022/10/21 05:26:10;;;;;;;30.98;24.10;;;;;;;15.13;90.62;95247.50;5114746;27;20747;-82
2022/10/21 05:28:36;;;;;;;26.77;21.45;;;;;;;15.21;90.38;95255.00;5108666;28;20191;-82
2022/10/21 05:31:03;;;;;;;9.23;8.32;;;;;;;15.20;90.07;95254.22;5111973;28;20191;-82
2022/10/21 05:33:29;;;;;;;7.63;6.78;;;;;;;15.26;90.01;95252.56;5103877;28;20207;-83
2022/10/21 05:35:57;;;;;;;9.10;6.70;;;;;;;15.34;89.71;95259.31;5098603;28;20230;-82
2022/10/21 05:38:24;;;;;;;7.05;5.68;;;;;;;15.40;89.38;95263.63;5107837;28;20184;-82
2022/10/21 05:40:51;;;;;;;11.07;5.75;;;;;;;15.45;89.20;95259.38;5112227;28;20195;-82
2022/10/21 05:43:18;;;;;;;8.43;5.38;;;;;;;15.50;88.89;95264.72;5116723;27;20199;-82
2022/10/21 05:45:44;;;;;;;6.30;5.55;;;;;;;15.49;88.44;95257.94;5106593;28;20216;-82
2022/10/21 05:48:11;;;;;;;7.35;5.10;;;;;;;15.52;88.18;95259.31;5100946;28;20196;-82
2022/10/21 05:50:37;;;;;;;6.78;5.70;;;;;;;15.52;88.08;95257.53;5115802;28;20211;-82
2022/10/21 05:53:04;;;;;;;9.38;5.30;;;;;;;15.56;88.29;95255.34;5115139;27;20202;-82
2022/10/21 05:55:30;;;;;;;7.75;5.85;;;;;;;15.60;87.65;95253.88;5114788;28;20718;-82
2022/10/21 05:57:58;;;;;;;9.55;5.68;;;;;;;15.61;87.70;95260.66;5115783;28;20717;-82
2022/10/21 06:00:24;;;;;;;8.93;5.30;;;;;;;15.63;87.80;95258.63;5116111;27;20191;-82
2022/10/21 06:02:51;;;;;;;8.63;5.15;;;;;;;15.65;87.74;95255.81;5115692;28;20195;-82
2022/10/21 06:05:18;;;;;;;9.82;5.75;;;;;;;15.65;87.65;95261.00;5115519;28;20232;-82
2022/10/21 06:07:44;;;;;;;6.63;5.50;;;;;;;15.68;87.78;95265.78;5108985;28;20290;-82
2022/10/21 06:10:11;;;;;;;5.78;5.10;;;;;;;15.68;87.54;95263.19;5096908;28;20196;-84
2022/10/21 06:12:38;;;;;;;10.50;6.43;;;;;;;15.69;87.51;95254.38;5097212;28;20257;-82
2022/10/21 06:15:07;;;;;;;8.88;6.10;;;;;;;15.69;87.57;95262.19;5101585;28;20211;-82
2022/10/21 06:17:34;;;;;;;7.30;5.70;;;;;;;15.69;87.44;95260.38;5102909;28;20219;-82
2022/10/21 06:20:01;;;;;;;7.22;5.22;;;;;;;15.70;87.52;95256.78;5101616;28;20403;-84
2022/10/21 06:22:27;;;;;;;7.75;5.53;;;;;;;15.62;87.93;95266.63;5101713;28;20196;-81
2022/10/21 06:24:54;;;;;;;7.72;5.72;;;;;;;15.60;87.98;95260.88;5103813;28;20224;-82
2022/10/21 06:27:20;;;;;;;8.88;5.47;;;;;;;15.61;88.27;95267.63;5105430;28;20205;-80
2022/10/21 06:29:47;;;;;;;6.45;5.80;;;;;;;15.62;88.23;95279.59;5100620;28;20188;-81
2022/10/21 06:32:15;;;;;;;7.80;6.07;;;;;;;15.67;87.79;95271.97;5100935;28;20553;-82
2022/10/21 06:34:41;;;;;;;8.55;5.95;;;;;;;15.61;87.65;95271.03;5102849;28;20188;-82
2022/10/21 06:37:08;;;;;;;7.63;5.82;;;;;;;15.84;87.15;95270.41;5100028;28;20212;-83
2022/10/21 06:39:34;;;;;;;9.20;5.53;;;;;;;15.91;87.15;95265.13;5115665;27;20764;-82
2022/10/21 06:42:01;;;;;;;7.05;5.80;;;;;;;15.94;86.79;95275.09;5113605;27;20207;-82
2022/10/21 06:44:27;;;;;;;9.88;6.25;;;;;;;15.89;87.36;95255.75;5117110;28;20209;-82
2022/10/21 06:46:54;;;;;;;9.45;6.05;;;;;;;15.98;86.88;95256.25;5106656;28;20215;-82
2022/10/21 06:49:22;;;;;;;11.07;6.80;;;;;;;15.97;86.10;95256.50;5101605;28;20215;-81
2022/10/21 06:51:48;;;;;;;7.68;6.18;;;;;;;15.89;86.89;95250.56;5107324;28;20192;-81
2022/10/21 06:54:15;;;;;;;8.18;6.22;;;;;;;15.91;86.62;95233.97;5099657;28;20582;-83
2022/10/21 06:56:41;;;;;;;8.50;5.95;;;;;;;15.78;86.98;95229.72;5100163;28;20223;-82
2022/10/21 06:59:09;;;;;;;9.18;5.55;;;;;;;15.70;87.61;95237.81;5098389;28;20224;-82
2022/10/21 07:01:36;;;;;;;9.18;6.18;;;;;;;15.68;87.07;95245.81;5100151;28;20192;-82
2022/10/21 07:04:04;;;;;;;10.13;5.78;;;;;;;15.65;87.02;95241.03;5106574;28;20559;-82
2022/10/21 07:06:33;;;;;;;9.88;6.05;;;;;;;15.63;87.19;95235.28;5099847;28;20235;-82
2022/10/21 07:08:59;;;;;;;10.35;6.32;;;;;;;15.59;87.89;95234.13;5101162;28;20196;-82
2022/10/21 07:11:26;;;;;;;10.63;6.38;;;;;;;15.68;87.68;95229.44;5108256;28;20214;-82
2022/10/21 07:13:53;;;;;;;8.95;6.68;;;;;;;15.74;86.94;95228.59;5100987;28;20207;-82
2022/10/21 07:16:23;;;;;;;12.18;6.57;;;;;;;15.77;86.45;95226.34;5110635;28;20294;-81
2022/10/21 07:18:50;;;;;;;7.72;6.68;;;;;;;15.78;86.19;95232.31;5111831;28;20202;-80
2022/10/21 07:21:18;;;;;;;11.38;6.15;;;;;;;15.84;86.18;95228.84;5104056;28;20199;-81
2022/10/21 07:23:47;;;;;;;8.90;6.10;;;;;;;15.94;86.13;95223.97;5106634;28;20196;-80
2022/10/21 07:26:15;;;;;;;7.47;6.35;;;;;;;15.89;85.05;95224.59;5111551;28;20219;-80
2022/10/21 07:28:45;;;;;;;8.30;6.57;;;;;;;15.79;85.50;95219.13;5101970;28;20192;-81
2022/10/21 07:31:12;;;;;;;7.50;6.13;;;;;;;15.68;85.46;95206.88;5106905;28;20202;-80
2022/10/21 07:33:39;;;;;;;7.45;6.50;;;;;;;15.67;85.68;95207.09;5100951;27;20213;-81
2022/10/21 07:36:09;;;;;;;8.10;6.53;;;;;;;15.63;85.90;95198.94;5112160;27;20208;-81
2022/10/21 07:38:36;;;;;;;7.68;6.25;;;;;;;15.68;85.83;95199.09;5108475;28;20192;-81
2022/10/21 07:41:05;;;;;;;10.88;6.43;;;;;;;15.70;85.36;95207.47;5112354;28;20192;-81
2022/10/21 07:43:31;;;;;;;9.32;6.30;;;;;;;15.73;84.69;95201.84;5099189;28;20196;-81
2022/10/21 07:45:59;;;;;;;9.05;6.38;;;;;;;15.78;84.44;95199.34;5093488;28;20216;-82
2022/10/21 07:48:26;;;;;;;10.52;6.40;;;;;;;15.86;84.00;95200.88;5099668;28;20194;-81
2022/10/21 07:50:52;;;;;;;10.38;6.13;;;;;;;15.91;84.36;95210.63;5093715;28;20206;-81
2022/10/21 07:53:20;;;;;;;8.90;5.70;;;;;;;15.98;83.15;95204.31;5104342;27;20217;-82
2022/10/21 07:55:47;;;;;;;7.65;5.53;;;;;;;15.98;83.00;95191.31;5121446;27;20223;-81
2022/10/21 07:58:16;;;;;;;10.27;5.85;;;;;;;16.01;82.58;95192.69;5126909;27;20199;-81
2022/10/21 08:00:43;;;;;;;6.82;5.25;;;;;;;16.04;82.38;95193.06;5116992;27;20199;-81
2022/10/21 08:03:11;;;;;;;7.93;5.65;;;;;;;16.17;82.38;95202.47;5114291;27;20191;-81
2022/10/21 08:05:40;;;;;;;6.68;5.97;;;;;;;16.29;81.39;95199.94;5111421;28;20230;-81
2022/10/21 08:08:06;;;;;;;8.90;5.35;;;;;;;16.37;80.23;95194.41;5109954;28;20191;-81
2022/10/21 08:10:38;;;;;;;7.72;4.75;;;;;;;16.37;78.97;95191.81;5111138;28;20215;-80
2022/10/21 08:13:04;;;;;;;9.85;5.22;;;;;;;16.50;78.51;95189.81;5111527;28;20206;-81
2022/10/21 08:15:32;;;;;;;8.90;5.53;;;;;;;16.50;77.80;95195.03;5111505;28;20218;-81
2022/10/21 08:17:59;;;;;;;13.60;5.32;;;;;;;16.73;77.34;95191.72;5112616;28;20200;-82
2022/10/21 08:20:25;;;;;;;14.32;5.03;;;;;;;16.88;76.26;95191.28;5112382;28;20218;-82
2022/10/21 08:22:52;;;;;;;7.20;5.10;;;;;;;16.99;76.32;95184.47;5113370;28;20192;-84
2022/10/21 08:25:19;;;;;;;8.18;4.35;;;;;;;16.95;74.62;95188.53;5113577;28;20215;-84
2022/10/21 08:27:45;;;;;;;7.50;4.70;;;;;;;16.93;75.16;95186.97;5110057;28;20204;-82
2022/10/21 08:30:14;;;;;;;9.82;5.03;;;;;;;16.91;75.37;95189.03;5110539;28;20286;-82
2022/10/21 08:32:42;;;;;;;9.57;4.88;;;;;;;16.88;74.67;95186.88;5111103;28;20711;-82
2022/10/21 08:35:09;;;;;;;5.55;4.60;;;;;;;16.89;73.92;95196.25;5096222;28;20200;-82
2022/10/21 08:37:35;;;;;;;7.80;4.35;;;;;;;16.95;74.50;95191.94;5090524;28;20193;-82
2022/10/21 08:40:02;;;;;;;7.30;4.38;;;;;;;16.97;75.40;95192.50;5090981;28;20211;-80
2022/10/21 08:42:29;;;;;;;8.45;4.90;;;;;;;16.98;75.14;95191.50;5090968;28;20579;-81
2022/10/21 08:44:59;;;;;;;7.28;4.80;;;;;;;16.97;75.30;95189.91;5097328;28;20219;-81
2022/10/21 08:47:33;;;;;;;5.75;4.88;;;;;;;16.94;74.76;95195.56;5113637;28;20226;-81
2022/10/21 08:50:04;;;;;;;8.43;4.90;;;;;;;16.98;75.54;95194.09;5114929;28;20218;-80
2022/10/21 08:52:38;;;;;;;9.80;4.40;;;;;;;17.00;74.86;95196.47;5115410;28;20856;-80
2022/10/21 08:55:07;;;;;;;8.50;4.60;;;;;;;17.04;74.67;95198.41;5115552;28;20210;-81
2022/10/21 08:57:35;;;;;;;8.93;4.97;;;;;;;17.11;74.23;95195.69;5115200;28;20203;-82
2022/10/21 09:00:02;;;;;;;7.45;4.55;;;;;;;17.17;74.66;95202.56;5114194;28;20201;-82
2022/10/21 09:02:43;;;;;;;8.82;4.75;;;;;;;17.22;73.88;95210.50;5116275;27;20187;-82
2022/10/21 09:05:25;;;;;;;8.65;4.90;;;;;;;17.22;73.89;95197.50;5129157;27;20210;-82
2022/10/21 09:08:03;;;;;;;10.68;5.32;;;;;;;17.17;73.28;95198.16;5120158;27;20199;-81
2022/10/21 09:10:42;;;;;;;8.60;4.57;;;;;;;17.20;73.80;95212.53;5124818;27;20195;-81
2022/10/21 09:13:17;;;;;;;8.40;4.80;;;;;;;17.24;74.19;95208.47;5094694;28;20214;-82
2022/10/21 09:15:54;;;;;;;11.13;5.10;;;;;;;17.26;74.29;95209.03;5103736;28;20218;-81
2022/10/21 09:18:34;;;;;;;8.07;5.10;;;;;;;17.24;75.74;95222.28;5102219;28;20198;-81
2022/10/21 09:21:09;;;;;;;7.93;4.45;;;;;;;17.30;75.11;95225.78;5097766;28;20192;-81
2022/10/21 09:23:58;;;;;;;15.55;4.88;;;;;;;17.27;75.72;95227.03;5120161;27;20657;-82
2022/10/21 09:26:37;;;;;;;6.25;4.55;;;;;;;17.25;76.89;95228.28;5097376;28;20280;-81
2022/10/21 09:29:18;;;;;;;10.27;4.85;;;;;;;17.28;76.47;95225.22;5113841;27;20211;-80
2022/10/21 09:31:44;;;;;;;10.65;5.00;;;;;;;17.37;76.39;95243.88;5104474;28;20207;-81
2022/10/21 09:34:19;;;;;;;5.30;4.80;;;;;;;17.39;76.03;95249.63;5108145;28;20215;-81
2022/10/21 09:36:49;;;;;;;8.25;5.47;;;;;;;17.32;75.97;95254.19;5109473;28;20215;-82
2022/10/21 09:39:20;;;;;;;12.18;8.60;;;;;;;17.32;76.22;95256.78;5108729;28;20191;-82
2022/10/21 09:41:52;;;;;;;11.13;8.15;;;;;;;17.28;76.41;95277.25;5109071;28;20200;-81
2022/10/21 09:44:21;;;;;;;9.60;5.20;;;;;;;17.26;76.84;95279.28;5106699;28;20554;-81
2022/10/21 09:46:49;;;;;;;14.07;7.72;;;;;;;17.23;77.64;95308.34;5102381;28;20219;-81
2022/10/21 09:49:24;;;;;;;13.93;6.20;;;;;;;17.24;77.66;95341.16;5102204;28;20191;-81
2022/10/21 09:51:52;;;;;;;7.40;6.10;;;;;;;17.14;78.66;95369.53;5100390;28;20682;-81
2022/10/21 09:54:25;;;;;;;7.40;6.70;;;;;;;17.03;78.54;95368.50;5114632;28;20192;-81
2022/10/21 09:56:58;;;;;;;12.30;7.53;;;;;;;16.92;78.95;95369.25;5102851;28;20214;-81
2022/10/21 09:59:25;;;;;;;10.63;7.90;;;;;;;16.76;79.95;95378.44;5123343;27;20221;-81
2022/10/21 10:01:52;;;;;;;9.13;7.95;;;;;;;16.65;79.84;95366.19;5117956;27;20195;-80
2022/10/21 10:04:23;;;;;;;9.50;8.13;;;;;;;16.59;80.09;95369.63;5109026;27;20198;-83
2022/10/21 10:06:52;;;;;;;9.57;8.15;;;;;;;16.52;80.35;95376.72;5121894;27;20230;-83
2022/10/21 10:09:27;;;;;;;12.85;8.23;;;;;;;16.38;81.04;95370.09;5102374;28;20194;-83
2022/10/21 10:11:56;;;;;;;9.68;8.48;;;;;;;16.28;82.02;95380.19;5100268;28;20207;-86
2022/10/21 10:14:27;;;;;;;11.07;8.35;;;;;;;16.16;82.08;95374.94;5102370;28;20246;-84
2022/10/21 10:16:53;;;;;;;9.38;8.38;;;;;;;16.26;81.65;95370.03;5099756;28;20258;-81
2022/10/21 10:19:22;;;;;;;12.90;8.43;;;;;;;16.25;82.47;95391.81;5095354;28;20192;-81
2022/10/21 10:22:09;;;;;;;9.20;8.30;;;;;;;16.22;82.31;95390.44;5095502;28;20199;-81
2022/10/21 10:24:36;;;;;;;12.88;8.75;;;;;;;16.19;82.13;95401.25;5109315;27;20679;-81
2022/10/21 10:27:05;;;;;;;12.18;8.27;;;;;;;16.16;82.41;95401.69;5104721;27;20462;-81
2022/10/21 10:29:34;;;;;;;8.80;8.00;;;;;;;16.24;82.47;95400.63;5097359;28;20201;-81
2022/10/21 10:32:03;;;;;;;10.25;7.75;;;;;;;16.22;82.83;95403.44;5101773;28;20665;-81
2022/10/21 10:34:33;;;;;;;13.75;8.48;;;;;;;16.15;83.34;95410.50;5099978;28;20192;-80
2022/10/21 10:37:04;;;;;;;10.93;8.40;;;;;;;16.23;82.80;95419.81;5102002;28;20725;-82
2022/10/21 10:39:34;;;;;;;10.65;7.72;;;;;;;16.28;82.66;95416.56;5103596;28;20199;-80
2022/10/21 10:42:02;;;;;;;8.65;7.82;;;;;;;16.28;82.97;95409.56;5110677;28;20867;-81
2022/10/21 10:44:36;;;;;;;10.65;8.57;;;;;;;16.25;83.50;95407.41;5113677;28;20291;-80
2022/10/21 10:47:05;;;;;;;8.70;7.97;;;;;;;16.24;83.56;95388.44;5101562;28;20275;-80
2022/10/21 10:49:38;;;;;;;9.20;7.63;;;;;;;16.24;83.98;95365.03;5098663;28;20203;-81
2022/10/21 10:52:20;;;;;;;9.60;7.53;;;;;;;16.32;84.56;95371.75;5100230;28;20207;-81
2022/10/21 10:54:47;;;;;;;11.38;8.23;;;;;;;16.30;84.04;95376.38;5098957;28;20199;-81
2022/10/21 10:57:18;;;;;;;11.80;8.52;;;;;;;16.27;84.31;95383.81;5107096;28;20228;-81
2022/10/21 10:59:50;;;;;;;11.23;7.68;;;;;;;16.30;84.00;95396.38;5100293;28;20202;-81
2022/10/21 11:02:27;;;;;;;10.65;8.18;;;;;;;16.36;83.69;95405.88;5098432;27;20199;-81
2022/10/21 11:05:23;;;;;;;8.80;7.65;;;;;;;16.28;83.99;95440.75;5094181;28;20196;-83
2022/10/21 11:07:53;;;;;;;9.65;7.40;;;;;;;16.22;84.68;95395.63;5090967;28;20200;-82
2022/10/21 11:10:31;;;;;;;7.55;6.85;;;;;;;16.24;85.36;95398.03;5107561;28;20203;-83
2022/10/21 11:12:59;;;;;;;9.63;7.65;;;;;;;16.23;84.82;95422.41;5108991;28;20203;-80
2022/10/21 11:15:36;;;;;;;9.35;7.32;;;;;;;16.25;84.74;95433.38;5102167;28;20204;-81
2022/10/21 11:18:14;;;;;;;9.70;7.50;;;;;;;16.22;85.25;95437.19;5097902;28;20569;-80
2022/10/21 11:20:50;;;;;;;9.45;7.20;;;;;;;16.10;86.30;95443.31;5101254;27;20203;-80
2022/10/21 11:23:45;;;;;;;9.30;7.10;;;;;;;16.00;87.58;95461.97;5094831;28;21664;-80
2022/10/21 11:26:20;;;;;;;8.43;7.03;;;;;;;15.88;88.65;95474.88;5097408;28;20227;-82
2022/10/21 11:28:53;;;;;;;9.68;7.00;;;;;;;15.84;89.70;95467.72;5100155;28;20195;-81
2022/10/21 11:31:43;;;;;;;10.82;6.60;;;;;;;15.96;89.25;95460.84;5099971;28;20706;-80
2022/10/21 11:34:21;;;;;;;11.45;6.88;;;;;;;16.17;87.64;95475.22;5093652;28;20196;-80
2022/10/21 11:36:58;;;;;;;9.30;6.47;;;;;;;16.26;87.22;95466.16;5095605;28;20287;-80
2022/10/21 11:39:36;;;;;;;8.40;6.28;;;;;;;16.24;87.60;95461.16;5100839;28;20193;-80
2022/10/21 11:42:22;;;;;;;7.40;6.13;;;;;;;16.26;87.47;95463.56;5092860;28;20196;-80